createdAt,value
2018-07-24T00:00:52.488Z,16.60
2018-07-24T00:01:52.490Z,16.59
2018-07-24T00:02:52.492Z,16.58
2018-07-24T00:03:52.497Z,16.50
2018-07-24T00:04:52.497Z,16.49
2018-07-24T00:05:52.496Z,16.56
2018-07-24T00:06:52.502Z,16.45
2018-07-24T00:07:52.504Z,16.48
2018-07-24T00:08:52.507Z,16.45
2018-07-24T00:09:52.508Z,16.45
2018-07-24T00:10:52.525Z,16.45
2018-07-24T00:11:52.539Z,16.52
2018-07-24T00:12:52.518Z,16.53
2018-07-24T00:13:52.516Z,16.41
2018-07-24T00:14:52.520Z,16.49
2018-07-24T00:15:52.520Z,16.42
2018-07-24T00:16:52.527Z,16.40
2018-07-24T00:17:52.526Z,16.35
2018-07-24T00:18:52.529Z,16.37
2018-07-24T00:19:52.535Z,16.37
2018-07-24T00:20:52.536Z,16.27
2018-07-24T00:21:52.535Z,16.30
2018-07-24T00:22:52.536Z,16.27
2018-07-24T00:23:52.540Z,16.26
2018-07-24T00:24:52.544Z,16.27
2018-07-24T00:25:52.548Z,16.22
2018-07-24T00:26:52.547Z,16.12
2018-07-24T00:27:52.552Z,16.09
2018-07-24T00:28:52.553Z,16.04
2018-07-24T00:29:52.551Z,16.16
2018-07-24T00:30:52.555Z,16.06
2018-07-24T00:31:52.556Z,16.07
2018-07-24T00:32:52.559Z,16.04
2018-07-24T00:33:52.560Z,16.09
2018-07-24T00:34:52.564Z,16.07
2018-07-24T00:35:52.566Z,16.12
2018-07-24T00:36:52.573Z,16.01
2018-07-24T00:37:52.569Z,16.09
2018-07-24T00:38:52.570Z,16.15
2018-07-24T00:39:52.574Z,16.15
2018-07-24T00:40:52.578Z,16.09
2018-07-24T00:41:52.600Z,16.16
2018-07-24T00:42:52.582Z,16.15
2018-07-24T00:43:52.582Z,16.11
2018-07-24T00:44:52.582Z,16.09
2018-07-24T00:45:52.588Z,16.16
2018-07-24T00:46:52.594Z,16.06
2018-07-24T00:47:52.591Z,16.14
2018-07-24T00:48:52.591Z,16.06
2018-07-24T00:49:52.594Z,16.16
2018-07-24T00:50:52.597Z,16.15
2018-07-24T00:51:52.602Z,16.07
2018-07-24T00:52:52.601Z,16.15
2018-07-24T00:53:52.602Z,16.14
2018-07-24T00:54:52.607Z,16.18
2018-07-24T00:55:52.605Z,16.00
2018-07-24T00:56:52.609Z,16.16
2018-07-24T00:57:52.615Z,16.07
2018-07-24T00:58:52.637Z,16.00
2018-07-24T00:59:52.614Z,16.01
2018-07-24T01:00:52.616Z,16.00
2018-07-24T01:01:52.616Z,15.97
2018-07-24T01:02:52.621Z,15.97
2018-07-24T01:03:52.621Z,15.92
2018-07-24T01:04:52.638Z,15.92
2018-07-24T01:05:52.625Z,15.92
2018-07-24T01:06:52.628Z,15.86
2018-07-24T01:07:52.630Z,15.94
2018-07-24T01:08:52.631Z,15.92
2018-07-24T01:09:52.634Z,15.92
2018-07-24T01:10:52.637Z,15.89
2018-07-24T01:11:52.640Z,15.82
2018-07-24T01:12:52.642Z,15.81
2018-07-24T01:13:52.642Z,15.85
2018-07-24T01:14:52.645Z,15.84
2018-07-24T01:15:52.667Z,15.85
2018-07-24T01:16:52.648Z,15.88
2018-07-24T01:17:52.649Z,15.79
2018-07-24T01:18:52.651Z,15.89
2018-07-24T01:19:52.653Z,15.84
2018-07-24T01:20:52.657Z,15.82
2018-07-24T01:21:52.656Z,15.79
2018-07-24T01:22:52.663Z,15.81
2018-07-24T01:23:52.660Z,15.81
2018-07-24T01:24:52.665Z,15.78
2018-07-24T01:25:52.668Z,15.74
2018-07-24T01:26:52.667Z,15.76
2018-07-24T01:27:52.668Z,15.76
2018-07-24T01:28:52.672Z,15.72
2018-07-24T01:29:52.671Z,15.63
2018-07-24T01:30:52.670Z,15.79
2018-07-24T01:31:52.676Z,15.72
2018-07-24T01:32:52.677Z,15.67
2018-07-24T01:33:52.680Z,15.72
2018-07-24T01:34:52.681Z,15.82
2018-07-24T01:35:52.685Z,15.70
2018-07-24T01:36:52.688Z,15.67
2018-07-24T01:37:52.683Z,15.74
2018-07-24T01:38:52.685Z,15.68
2018-07-24T01:39:52.689Z,15.76
2018-07-24T01:40:52.689Z,15.78
2018-07-24T01:41:52.695Z,15.79
2018-07-24T01:42:52.696Z,15.76
2018-07-24T01:43:52.700Z,15.81
2018-07-24T01:44:52.697Z,15.68
2018-07-24T01:45:52.701Z,15.70
2018-07-24T01:46:52.700Z,15.60
2018-07-24T01:47:52.704Z,15.68
2018-07-24T01:48:52.706Z,15.72
2018-07-24T01:49:52.704Z,15.59
2018-07-24T01:50:52.708Z,15.57
2018-07-24T01:51:52.715Z,15.56
2018-07-24T01:52:52.713Z,15.51
2018-07-24T01:53:52.713Z,15.56
2018-07-24T01:54:52.716Z,15.59
2018-07-24T01:55:52.717Z,15.59
2018-07-24T01:56:52.725Z,15.59
2018-07-24T01:57:52.717Z,15.56
2018-07-24T01:58:52.719Z,15.57
2018-07-24T01:59:52.724Z,15.56
2018-07-24T02:00:52.727Z,15.54
2018-07-24T02:01:52.728Z,15.59
2018-07-24T02:02:52.727Z,15.51
2018-07-24T02:03:52.779Z,15.60
2018-07-24T02:04:52.735Z,15.51
2018-07-24T02:05:52.733Z,15.61
2018-07-24T02:06:52.735Z,15.59
2018-07-24T02:07:52.736Z,15.54
2018-07-24T02:08:52.739Z,15.54
2018-07-24T02:09:52.742Z,15.54
2018-07-24T02:10:52.741Z,15.66
2018-07-24T02:11:52.742Z,15.60
2018-07-24T02:12:52.746Z,15.63
2018-07-24T02:13:52.748Z,15.56
2018-07-24T02:14:52.748Z,15.60
2018-07-24T02:15:52.750Z,15.57
2018-07-24T02:16:52.754Z,15.54
2018-07-24T02:17:52.756Z,15.51
2018-07-24T02:18:52.756Z,15.52
2018-07-24T02:19:52.755Z,15.48
2018-07-24T02:20:52.766Z,15.54
2018-07-24T02:21:52.760Z,15.45
2018-07-24T02:22:52.762Z,15.49
2018-07-24T02:23:52.762Z,15.41
2018-07-24T02:24:52.765Z,15.48
2018-07-24T02:25:52.766Z,15.51
2018-07-24T02:26:52.766Z,15.41
2018-07-24T02:27:52.770Z,15.41
2018-07-24T02:28:52.770Z,15.39
2018-07-24T02:29:52.770Z,15.43
2018-07-24T02:30:52.774Z,15.42
2018-07-24T02:31:52.861Z,15.38
2018-07-24T02:32:52.781Z,15.38
2018-07-24T02:33:52.779Z,15.39
2018-07-24T02:34:52.781Z,15.39
2018-07-24T02:35:52.781Z,15.51
2018-07-24T02:36:52.782Z,15.59
2018-07-24T02:37:52.784Z,15.49
2018-07-24T02:38:52.817Z,15.54
2018-07-24T02:39:52.788Z,15.56
2018-07-24T02:40:52.791Z,15.59
2018-07-24T02:41:52.791Z,15.51
2018-07-24T02:42:52.793Z,15.43
2018-07-24T02:43:52.795Z,15.35
2018-07-24T02:44:52.795Z,15.38
2018-07-24T02:45:52.799Z,15.36
2018-07-24T02:46:52.799Z,15.35
2018-07-24T02:47:52.801Z,15.30
2018-07-24T02:48:52.805Z,15.28
2018-07-24T02:49:52.801Z,15.30
2018-07-24T02:50:52.804Z,15.26
2018-07-24T02:51:52.807Z,15.27
2018-07-24T02:52:52.810Z,15.31
2018-07-24T02:53:52.832Z,15.31
2018-07-24T02:54:52.813Z,15.24
2018-07-24T02:55:52.814Z,15.21
2018-07-24T02:56:52.814Z,15.23
2018-07-24T02:57:52.818Z,15.20
2018-07-24T02:58:52.822Z,15.24
2018-07-24T02:59:52.823Z,15.28
2018-07-24T03:00:52.825Z,15.28
2018-07-24T03:01:52.820Z,15.31
2018-07-24T03:02:52.822Z,15.30
2018-07-24T03:03:52.824Z,15.30
2018-07-24T03:04:52.831Z,15.27
2018-07-24T03:05:52.825Z,15.31
2018-07-24T03:06:52.829Z,15.24
2018-07-24T03:07:52.829Z,15.30
2018-07-24T03:08:52.832Z,15.28
2018-07-24T03:09:52.833Z,15.27
2018-07-24T03:10:52.833Z,15.39
2018-07-24T03:11:52.836Z,15.38
2018-07-24T03:12:52.835Z,15.35
2018-07-24T03:13:52.837Z,15.41
2018-07-24T03:14:52.838Z,15.38
2018-07-24T03:15:52.839Z,15.49
2018-07-24T03:16:52.844Z,15.36
2018-07-24T03:17:52.846Z,15.46
2018-07-24T03:18:52.842Z,15.46
2018-07-24T03:19:52.846Z,15.39
2018-07-24T03:20:52.846Z,15.39
2018-07-24T03:21:52.849Z,15.42
2018-07-24T03:22:52.852Z,15.48
2018-07-24T03:23:52.853Z,15.43
2018-07-24T03:24:52.870Z,15.41
2018-07-24T03:25:52.855Z,15.45
2018-07-24T03:26:52.856Z,15.43
2018-07-24T03:27:52.858Z,15.41
2018-07-24T03:28:52.862Z,15.39
2018-07-24T03:29:52.861Z,15.36
2018-07-24T03:30:52.862Z,15.30
2018-07-24T03:31:52.861Z,15.24
2018-07-24T03:32:52.872Z,15.27
2018-07-24T03:33:52.869Z,15.27
2018-07-24T03:34:52.867Z,15.21
2018-07-24T03:35:52.868Z,15.23
2018-07-24T03:36:52.875Z,15.23
2018-07-24T03:37:52.871Z,15.28
2018-07-24T03:38:52.874Z,15.26
2018-07-24T03:39:52.875Z,15.33
2018-07-24T03:40:52.874Z,15.35
2018-07-24T03:41:52.874Z,15.31
2018-07-24T03:42:52.890Z,15.42
2018-07-24T03:43:52.878Z,15.38
2018-07-24T03:44:52.889Z,15.31
2018-07-24T03:45:52.885Z,15.45
2018-07-24T03:46:52.883Z,15.30
2018-07-24T03:47:52.886Z,15.33
2018-07-24T03:48:52.888Z,15.31
2018-07-24T03:49:52.887Z,15.35
2018-07-24T03:50:52.902Z,15.31
2018-07-24T03:51:52.893Z,15.31
2018-07-24T03:52:52.890Z,15.35
2018-07-24T03:53:52.895Z,15.35
2018-07-24T03:54:52.897Z,15.38
2018-07-24T03:55:52.898Z,15.42
2018-07-24T03:56:52.900Z,15.43
2018-07-24T03:57:52.920Z,15.39
2018-07-24T03:58:52.917Z,15.39
2018-07-24T03:59:52.903Z,15.28
2018-07-24T04:00:52.905Z,15.42
2018-07-24T04:01:52.907Z,15.45
2018-07-24T04:02:52.907Z,15.43
2018-07-24T04:03:52.907Z,15.41
2018-07-24T04:04:52.912Z,15.45
2018-07-24T04:05:52.910Z,15.45
2018-07-24T04:06:52.915Z,15.41
2018-07-24T04:07:52.915Z,15.43
2018-07-24T04:08:52.916Z,15.51
2018-07-24T04:09:52.918Z,15.48
2018-07-24T04:10:52.922Z,15.51
2018-07-24T04:11:52.922Z,15.51
2018-07-24T04:12:52.923Z,15.51
2018-07-24T04:13:52.923Z,15.49
2018-07-24T04:14:52.924Z,15.56
2018-07-24T04:15:52.926Z,15.48
2018-07-24T04:16:52.927Z,15.49
2018-07-24T04:17:52.931Z,15.54
2018-07-24T04:18:52.929Z,15.57
2018-07-24T04:19:52.932Z,15.52
2018-07-24T04:20:52.933Z,15.56
2018-07-24T04:21:52.932Z,15.59
2018-07-24T04:22:52.935Z,15.57
2018-07-24T04:23:52.936Z,15.56
2018-07-24T04:24:52.939Z,15.56
2018-07-24T04:25:52.940Z,15.61
2018-07-24T04:26:52.943Z,15.67
2018-07-24T04:27:52.945Z,15.61
2018-07-24T04:28:52.946Z,15.76
2018-07-24T04:29:52.946Z,15.78
2018-07-24T04:30:52.983Z,15.67
2018-07-24T04:31:52.957Z,15.75
2018-07-24T04:32:52.950Z,15.72
2018-07-24T04:33:52.952Z,15.75
2018-07-24T04:34:52.958Z,15.81
2018-07-24T04:35:52.958Z,15.76
2018-07-24T04:36:52.960Z,15.84
2018-07-24T04:37:52.960Z,15.85
2018-07-24T04:38:52.968Z,15.81
2018-07-24T04:39:53.023Z,15.82
2018-07-24T04:40:52.966Z,15.86
2018-07-24T04:41:52.966Z,15.85
2018-07-24T04:42:52.967Z,15.86
2018-07-24T04:43:52.970Z,15.97
2018-07-24T04:44:52.973Z,15.96
2018-07-24T04:45:52.974Z,15.99
2018-07-24T04:46:52.994Z,15.99
2018-07-24T04:47:52.975Z,16.04
2018-07-24T04:48:52.977Z,16.09
2018-07-24T04:49:52.977Z,16.09
2018-07-24T04:50:52.981Z,16.23
2018-07-24T04:51:52.983Z,16.20
2018-07-24T04:52:52.986Z,16.23
2018-07-24T04:53:52.987Z,16.25
2018-07-24T04:54:52.988Z,16.34
2018-07-24T04:55:52.994Z,16.35
2018-07-24T04:56:52.992Z,16.49
2018-07-24T04:57:52.992Z,16.53
2018-07-24T04:58:52.997Z,16.49
2018-07-24T04:59:52.994Z,16.45
2018-07-24T05:00:53.000Z,16.60
2018-07-24T05:01:53.007Z,16.55
2018-07-24T05:02:53.006Z,16.65
2018-07-24T05:03:53.006Z,16.63
2018-07-24T05:04:53.012Z,16.67
2018-07-24T05:05:53.015Z,16.68
2018-07-24T05:06:53.018Z,16.67
2018-07-24T05:07:53.015Z,16.71
2018-07-24T05:08:53.017Z,16.78
2018-07-24T05:09:53.065Z,16.80
2018-07-24T05:10:53.021Z,16.85
2018-07-24T05:11:53.025Z,16.90
2018-07-24T05:12:53.024Z,16.92
2018-07-24T05:13:53.027Z,16.99
2018-07-24T05:14:53.029Z,16.98
2018-07-24T05:15:53.032Z,17.03
2018-07-24T05:16:53.038Z,17.10
2018-07-24T05:17:53.040Z,17.13
2018-07-24T05:18:53.039Z,17.13
2018-07-24T05:19:53.050Z,17.20
2018-07-24T05:20:53.048Z,17.29
2018-07-24T05:21:53.045Z,17.20
2018-07-24T05:22:53.048Z,17.41
2018-07-24T05:23:53.052Z,17.35
2018-07-24T05:24:53.053Z,17.43
2018-07-24T05:25:53.143Z,17.48
2018-07-24T05:26:53.075Z,17.62
2018-07-24T05:27:53.060Z,17.51
2018-07-24T05:28:53.063Z,17.64
2018-07-24T05:29:53.067Z,17.57
2018-07-24T05:30:53.073Z,17.73
2018-07-24T05:31:53.074Z,17.69
2018-07-24T05:32:53.076Z,17.76
2018-07-24T05:33:53.082Z,17.81
2018-07-24T05:34:53.077Z,17.89
2018-07-24T05:35:53.089Z,18.03
2018-07-24T05:36:53.088Z,18.04
2018-07-24T05:37:53.089Z,18.13
2018-07-24T05:38:53.181Z,18.21
2018-07-24T05:39:53.094Z,18.25
2018-07-24T05:40:53.097Z,18.33
2018-07-24T05:41:53.098Z,18.37
2018-07-24T05:42:53.103Z,18.46
2018-07-24T05:43:53.106Z,18.57
2018-07-24T05:44:53.109Z,18.65
2018-07-24T05:45:53.114Z,18.80
2018-07-24T05:46:53.115Z,18.91
2018-07-24T05:47:53.118Z,19.02
2018-07-24T05:48:53.135Z,19.05
2018-07-24T05:49:53.168Z,19.15
2018-07-24T05:50:53.130Z,19.31
2018-07-24T05:51:53.133Z,19.32
2018-07-24T05:52:53.135Z,19.43
2018-07-24T05:53:53.138Z,19.63
2018-07-24T05:54:53.144Z,19.63
2018-07-24T05:55:53.144Z,19.70
2018-07-24T05:56:53.157Z,19.78
2018-07-24T05:57:53.151Z,19.94
2018-07-24T05:58:53.158Z,20.09
2018-07-24T05:59:53.174Z,20.15
2018-07-24T06:00:53.163Z,20.20
2018-07-24T06:01:53.199Z,20.24
2018-07-24T06:02:53.170Z,20.33
2018-07-24T06:03:53.178Z,20.53
2018-07-24T06:04:53.178Z,20.54
2018-07-24T06:05:53.183Z,20.69
2018-07-24T06:06:53.187Z,20.87
2018-07-24T06:07:53.194Z,20.90
2018-07-24T06:08:53.195Z,21.04
2018-07-24T06:09:53.208Z,21.08
2018-07-24T06:10:53.203Z,21.14
2018-07-24T06:11:53.206Z,21.14
2018-07-24T06:12:53.214Z,21.24
2018-07-24T06:13:53.216Z,21.44
2018-07-24T06:14:53.217Z,21.61
2018-07-24T06:15:53.227Z,21.81
2018-07-24T06:16:53.290Z,22.09
2018-07-24T06:17:53.235Z,22.53
2018-07-24T06:18:53.237Z,23.09
2018-07-24T06:19:53.241Z,23.47
2018-07-24T06:20:53.247Z,24.22
2018-07-24T06:21:53.264Z,24.95
2018-07-24T06:22:53.253Z,25.56
2018-07-24T06:23:53.261Z,26.27
2018-07-24T06:24:53.269Z,26.86
2018-07-24T06:25:53.273Z,27.33
2018-07-24T06:26:53.276Z,27.54
2018-07-24T06:27:53.286Z,27.79
2018-07-24T06:28:53.285Z,27.89
2018-07-24T06:29:53.288Z,28.13
2018-07-24T06:30:53.294Z,28.43
2018-07-24T06:31:53.302Z,28.62
2018-07-24T06:32:53.304Z,28.72
2018-07-24T06:33:53.311Z,28.91
2018-07-24T06:34:53.376Z,29.25
2018-07-24T06:35:53.331Z,29.41
2018-07-24T06:36:53.330Z,29.47
2018-07-24T06:37:53.332Z,29.53
2018-07-24T06:38:53.341Z,29.45
2018-07-24T06:39:53.351Z,29.20
2018-07-24T06:40:53.352Z,29.10
2018-07-24T06:41:53.359Z,29.13
2018-07-24T06:42:53.367Z,29.16
2018-07-24T06:43:53.373Z,29.18
2018-07-24T06:44:53.379Z,29.25
2018-07-24T06:45:53.387Z,29.26
2018-07-24T06:46:53.393Z,29.35
2018-07-24T06:47:53.408Z,29.23
2018-07-24T06:48:53.411Z,29.29
2018-07-24T06:49:53.415Z,29.41
2018-07-24T06:50:53.421Z,29.50
2018-07-24T06:51:53.443Z,29.78
2018-07-24T06:52:53.443Z,30.00
2018-07-24T06:53:53.444Z,30.02
2018-07-24T06:54:53.456Z,29.84
2018-07-24T06:55:53.460Z,29.81
2018-07-24T06:56:53.471Z,29.84
2018-07-24T06:57:53.475Z,30.16
2018-07-24T06:58:53.482Z,30.46
2018-07-24T06:59:53.491Z,30.59
2018-07-24T07:00:53.500Z,30.62
2018-07-24T07:01:53.506Z,30.75
2018-07-24T07:02:53.516Z,30.72
2018-07-24T07:03:53.527Z,30.57
2018-07-24T07:04:53.535Z,30.37
2018-07-24T07:05:53.542Z,30.43
2018-07-24T07:06:53.553Z,30.27
2018-07-24T07:07:53.566Z,30.23
2018-07-24T07:08:53.573Z,29.99
2018-07-24T07:09:53.579Z,30.07
2018-07-24T07:10:53.587Z,30.26
2018-07-24T07:11:53.601Z,30.74
2018-07-24T07:12:53.608Z,30.91
2018-07-24T07:13:53.620Z,31.04
2018-07-24T07:14:53.627Z,31.13
2018-07-24T07:15:53.645Z,31.31
2018-07-24T07:16:53.648Z,31.68
2018-07-24T07:17:53.656Z,32.07
2018-07-24T07:18:53.669Z,32.07
2018-07-24T07:19:53.676Z,32.27
2018-07-24T07:20:53.688Z,32.59
2018-07-24T07:21:53.696Z,32.49
2018-07-24T07:22:53.708Z,32.62
2018-07-24T07:23:53.717Z,32.64
2018-07-24T07:24:53.727Z,32.79
2018-07-24T07:25:53.743Z,32.81
2018-07-24T07:26:53.753Z,32.85
2018-07-24T07:27:53.757Z,33.04
2018-07-24T07:28:53.770Z,33.23
2018-07-24T07:29:53.786Z,33.22
2018-07-24T07:30:53.792Z,33.20
2018-07-24T07:31:53.806Z,33.14
2018-07-24T07:32:53.825Z,33.10
2018-07-24T07:33:53.823Z,33.20
2018-07-24T07:34:53.836Z,32.79
2018-07-24T07:35:53.848Z,32.89
2018-07-24T07:36:53.867Z,32.93
2018-07-24T07:37:53.870Z,32.76
2018-07-24T07:38:53.882Z,32.61
2018-07-24T07:39:53.894Z,32.62
2018-07-24T07:40:53.906Z,32.00
2018-07-24T07:41:53.917Z,32.30
2018-07-24T07:42:53.927Z,32.48
2018-07-24T07:43:53.987Z,32.64
2018-07-24T07:44:53.957Z,32.00
2018-07-24T07:45:53.964Z,31.61
2018-07-24T07:46:53.991Z,31.39
2018-07-24T07:47:53.990Z,31.27
2018-07-24T07:48:54.002Z,31.57
2018-07-24T07:49:54.018Z,31.48
2018-07-24T07:50:54.026Z,31.39
2018-07-24T07:51:54.043Z,31.38
2018-07-24T07:52:54.053Z,31.40
2018-07-24T07:53:54.065Z,31.20
2018-07-24T07:54:54.076Z,31.31
2018-07-24T07:55:54.091Z,31.11
2018-07-24T07:56:54.105Z,31.04
2018-07-24T07:57:54.111Z,31.05
2018-07-24T07:58:54.127Z,31.28
2018-07-24T07:59:54.138Z,31.39
2018-07-24T08:00:54.152Z,31.43
2018-07-24T08:01:54.164Z,31.50
2018-07-24T08:02:54.183Z,31.50
2018-07-24T08:03:54.195Z,31.43
2018-07-24T08:04:54.210Z,31.18
2018-07-24T08:05:54.217Z,30.91
2018-07-24T08:06:54.229Z,30.56
2018-07-24T08:07:54.241Z,30.24
2018-07-24T08:08:54.263Z,30.29
2018-07-24T08:09:54.269Z,30.12
2018-07-24T08:10:54.283Z,30.14
2018-07-24T08:11:54.298Z,29.84
2018-07-24T08:12:54.308Z,30.00
2018-07-24T08:13:54.322Z,30.14
2018-07-24T08:14:54.338Z,30.21
2018-07-24T08:15:54.349Z,30.15
2018-07-24T08:16:54.364Z,29.52
2018-07-24T08:17:54.380Z,29.52
2018-07-24T08:18:54.394Z,29.71
2018-07-24T08:19:54.406Z,29.45
2018-07-24T08:20:54.423Z,29.74
2018-07-24T08:21:54.432Z,29.81
2018-07-24T08:22:54.450Z,29.81
2018-07-24T08:23:54.461Z,29.60
2018-07-24T08:24:54.474Z,29.62
2018-07-24T08:25:54.486Z,29.52
2018-07-24T08:26:54.503Z,29.33
2018-07-24T08:27:54.528Z,28.91
2018-07-24T08:28:54.538Z,29.01
2018-07-24T08:29:54.551Z,29.13
2018-07-24T08:30:54.558Z,29.25
2018-07-24T08:31:54.570Z,29.22
2018-07-24T08:32:54.588Z,29.28
2018-07-24T08:33:54.602Z,29.52
2018-07-24T08:34:54.614Z,29.68
2018-07-24T08:35:54.627Z,29.38
2018-07-24T08:36:54.648Z,29.56
2018-07-24T08:37:54.657Z,29.65
2018-07-24T08:38:54.674Z,29.81
2018-07-24T08:39:54.685Z,29.93
2018-07-24T08:40:54.703Z,30.15
2018-07-24T08:41:54.718Z,29.59
2018-07-24T08:42:54.729Z,29.60
2018-07-24T08:43:54.745Z,29.40
2018-07-24T08:44:54.760Z,29.62
2018-07-24T08:45:54.775Z,29.68
2018-07-24T08:46:54.788Z,29.72
2018-07-24T08:47:54.850Z,29.93
2018-07-24T08:48:54.818Z,30.11
2018-07-24T08:49:54.837Z,30.02
2018-07-24T08:50:54.848Z,29.94
2018-07-24T08:51:54.864Z,29.97
2018-07-24T08:52:54.999Z,30.26
2018-07-24T08:53:55.087Z,30.46
2018-07-24T08:54:55.172Z,30.45
2018-07-24T08:55:54.924Z,30.49
2018-07-24T08:56:54.940Z,30.84
2018-07-24T08:57:54.954Z,30.98
2018-07-24T08:58:54.971Z,31.01
2018-07-24T08:59:54.984Z,31.08
2018-07-24T09:00:55.002Z,30.96
2018-07-24T09:01:55.018Z,30.78
2018-07-24T09:02:55.040Z,30.61
2018-07-24T09:03:55.052Z,29.81
2018-07-24T09:04:55.063Z,29.82
2018-07-24T09:05:55.079Z,29.97
2018-07-24T09:06:55.095Z,30.15
2018-07-24T09:07:55.116Z,30.14
2018-07-24T09:08:55.140Z,29.81
2018-07-24T09:09:55.150Z,29.84
2018-07-24T09:10:55.157Z,29.92
2018-07-24T09:11:55.172Z,30.15
2018-07-24T09:12:55.188Z,30.23
2018-07-24T09:13:55.202Z,29.79
2018-07-24T09:14:55.216Z,29.84
2018-07-24T09:15:55.233Z,29.84
2018-07-24T09:16:55.247Z,30.03
2018-07-24T09:17:55.257Z,30.18
2018-07-24T09:18:55.274Z,30.31
2018-07-24T09:19:55.288Z,30.30
2018-07-24T09:20:55.361Z,30.43
2018-07-24T09:21:55.324Z,30.62
2018-07-24T09:22:55.330Z,30.57
2018-07-24T09:23:55.349Z,30.71
2018-07-24T09:24:55.356Z,30.09
2018-07-24T09:25:55.371Z,30.30
2018-07-24T09:26:55.441Z,30.43
2018-07-24T09:27:55.398Z,30.46
2018-07-24T09:28:55.409Z,30.47
2018-07-24T09:29:55.421Z,30.57
2018-07-24T09:30:55.442Z,30.62
2018-07-24T09:31:55.447Z,30.16
2018-07-24T09:32:55.463Z,30.24
2018-07-24T09:33:55.471Z,30.18
2018-07-24T09:34:55.481Z,29.70
2018-07-24T09:35:55.496Z,29.96
2018-07-24T09:36:55.509Z,29.84
2018-07-24T09:37:55.516Z,30.03
2018-07-24T09:38:55.534Z,29.87
2018-07-24T09:39:55.543Z,30.02
2018-07-24T09:40:55.552Z,30.31
2018-07-24T09:41:55.565Z,30.57
2018-07-24T09:42:55.578Z,30.76
2018-07-24T09:43:55.602Z,30.90
2018-07-24T09:44:55.604Z,31.08
2018-07-24T09:45:55.659Z,30.91
2018-07-24T09:46:55.622Z,31.21
2018-07-24T09:47:55.632Z,31.30
2018-07-24T09:48:55.643Z,31.33
2018-07-24T09:49:55.653Z,30.90
2018-07-24T09:50:55.663Z,30.87
2018-07-24T09:51:55.677Z,30.96
2018-07-24T09:52:55.684Z,30.90
2018-07-24T09:53:55.697Z,30.80
2018-07-24T09:54:55.707Z,30.57
2018-07-24T09:55:55.728Z,30.83
2018-07-24T09:56:55.733Z,30.81
2018-07-24T09:57:55.750Z,30.81
2018-07-24T09:58:55.750Z,31.09
2018-07-24T09:59:55.759Z,31.24
2018-07-24T10:00:55.771Z,31.26
2018-07-24T10:01:55.787Z,31.12
2018-07-24T10:02:55.796Z,31.09
2018-07-24T10:03:55.804Z,31.05
2018-07-24T10:04:55.813Z,31.23
2018-07-24T10:05:55.822Z,31.28
2018-07-24T10:06:55.834Z,31.36
2018-07-24T10:07:55.846Z,31.17
2018-07-24T10:08:55.856Z,31.28
2018-07-24T10:09:55.868Z,31.28
2018-07-24T10:10:55.918Z,31.13
2018-07-24T10:11:55.887Z,31.40
2018-07-24T10:12:55.999Z,31.53
2018-07-24T10:13:55.907Z,31.65
2018-07-24T10:14:55.921Z,31.77
2018-07-24T10:15:55.927Z,31.85
2018-07-24T10:16:56.004Z,31.93
2018-07-24T10:17:55.948Z,32.06
2018-07-24T10:18:56.001Z,32.22
2018-07-24T10:19:55.968Z,32.47
2018-07-24T10:20:55.979Z,32.55
2018-07-24T10:21:55.994Z,32.69
2018-07-24T10:22:55.999Z,32.52
2018-07-24T10:23:56.010Z,32.70
2018-07-24T10:24:56.034Z,32.73
2018-07-24T10:25:56.031Z,32.66
2018-07-24T10:26:56.055Z,32.59
2018-07-24T10:27:56.063Z,32.67
2018-07-24T10:28:56.080Z,32.67
2018-07-24T10:29:56.069Z,32.69
2018-07-24T10:30:56.082Z,32.52
2018-07-24T10:31:56.093Z,32.03
2018-07-24T10:32:56.104Z,31.91
2018-07-24T10:33:56.112Z,31.54
2018-07-24T10:34:56.123Z,31.55
2018-07-24T10:35:56.134Z,31.50
2018-07-24T10:36:56.149Z,31.53
2018-07-24T10:37:56.156Z,31.76
2018-07-24T10:38:56.166Z,31.72
2018-07-24T10:39:56.176Z,31.87
2018-07-24T10:40:56.192Z,31.82
2018-07-24T10:41:56.198Z,31.91
2018-07-24T10:42:56.250Z,31.98
2018-07-24T10:43:56.221Z,31.85
2018-07-24T10:44:56.230Z,32.06
2018-07-24T10:45:56.240Z,31.99
2018-07-24T10:46:56.249Z,31.93
2018-07-24T10:47:56.260Z,31.87
2018-07-24T10:48:56.271Z,31.79
2018-07-24T10:49:56.280Z,31.96
2018-07-24T10:50:56.290Z,32.07
2018-07-24T10:51:56.305Z,32.36
2018-07-24T10:52:56.332Z,32.30
2018-07-24T10:53:56.343Z,32.37
2018-07-24T10:54:56.335Z,32.54
2018-07-24T10:55:56.342Z,32.71
2018-07-24T10:56:56.355Z,32.51
2018-07-24T10:57:56.374Z,32.25
2018-07-24T10:58:56.392Z,32.32
2018-07-24T10:59:56.384Z,32.37
2018-07-24T11:00:56.395Z,32.52
2018-07-24T11:01:56.405Z,32.55
2018-07-24T11:02:56.418Z,32.69
2018-07-24T11:03:56.426Z,32.55
2018-07-24T11:04:56.434Z,32.25
2018-07-24T11:05:56.446Z,31.80
2018-07-24T11:06:56.459Z,31.88
2018-07-24T11:07:56.482Z,31.92
2018-07-24T11:08:56.480Z,32.05
2018-07-24T11:09:56.491Z,32.24
2018-07-24T11:10:56.503Z,32.49
2018-07-24T11:11:56.509Z,32.71
2018-07-24T11:12:56.519Z,32.69
2018-07-24T11:13:56.531Z,32.84
2018-07-24T11:14:56.540Z,32.80
2018-07-24T11:15:56.551Z,32.95
2018-07-24T11:16:56.561Z,33.01
2018-07-24T11:17:56.570Z,32.58
2018-07-24T11:18:56.582Z,32.47
2018-07-24T11:19:56.598Z,32.49
2018-07-24T11:20:56.603Z,32.51
2018-07-24T11:21:56.628Z,32.47
2018-07-24T11:22:56.822Z,32.21
2018-07-24T11:23:56.660Z,32.43
2018-07-24T11:24:56.662Z,31.93
2018-07-24T11:25:56.656Z,31.68
2018-07-24T11:26:56.667Z,31.93
2018-07-24T11:27:56.679Z,31.99
2018-07-24T11:28:56.685Z,32.33
2018-07-24T11:29:56.696Z,32.61
2018-07-24T11:30:56.709Z,32.62
2018-07-24T11:31:56.719Z,32.70
2018-07-24T11:32:56.756Z,32.77
2018-07-24T11:33:56.742Z,32.77
2018-07-24T11:34:56.772Z,32.57
2018-07-24T11:35:56.874Z,32.61
2018-07-24T11:36:56.771Z,32.71
2018-07-24T11:37:56.781Z,32.96
2018-07-24T11:38:56.792Z,32.99
2018-07-24T11:39:56.801Z,32.37
2018-07-24T11:40:56.848Z,32.06
2018-07-24T11:41:56.820Z,32.06
2018-07-24T11:42:56.839Z,32.07
2018-07-24T11:43:56.893Z,32.25
2018-07-24T11:44:56.854Z,32.59
2018-07-24T11:45:56.863Z,32.57
2018-07-24T11:46:56.872Z,32.71
2018-07-24T11:47:56.889Z,32.59
2018-07-24T11:48:56.895Z,32.44
2018-07-24T11:49:56.903Z,32.69
2018-07-24T11:50:56.915Z,32.79
2018-07-24T11:51:57.001Z,32.69
2018-07-24T11:52:56.935Z,32.92
2018-07-24T11:53:56.947Z,32.80
2018-07-24T11:54:56.957Z,32.71
2018-07-24T11:55:56.968Z,32.70
2018-07-24T11:56:57.003Z,32.67
2018-07-24T11:57:56.987Z,32.47
2018-07-24T11:58:57.006Z,32.57
2018-07-24T11:59:57.010Z,32.67
2018-07-24T12:00:57.020Z,32.77
2018-07-24T12:01:57.031Z,32.92
2018-07-24T12:02:57.040Z,33.07
2018-07-24T12:03:57.053Z,33.26
2018-07-24T12:04:57.063Z,33.34
2018-07-24T12:05:57.072Z,33.49
2018-07-24T12:06:57.083Z,33.70
2018-07-24T12:07:57.135Z,33.71
2018-07-24T12:08:57.106Z,33.76
2018-07-24T12:09:57.124Z,33.74
2018-07-24T12:10:57.126Z,33.92
2018-07-24T12:11:57.142Z,34.08
2018-07-24T12:12:57.150Z,34.14
2018-07-24T12:13:57.159Z,34.08
2018-07-24T12:14:57.253Z,33.67
2018-07-24T12:15:57.180Z,33.48
2018-07-24T12:16:57.193Z,33.71
2018-07-24T12:17:57.202Z,33.79
2018-07-24T12:18:57.216Z,33.67
2018-07-24T12:19:57.222Z,33.36
2018-07-24T12:20:57.234Z,33.34
2018-07-24T12:21:57.249Z,32.99
2018-07-24T12:22:57.256Z,32.99
2018-07-24T12:23:57.265Z,33.03
2018-07-24T12:24:57.279Z,33.07
2018-07-24T12:25:57.286Z,33.22
2018-07-24T12:26:57.296Z,33.26
2018-07-24T12:27:57.309Z,33.22
2018-07-24T12:28:57.320Z,33.04
2018-07-24T12:29:57.329Z,33.19
2018-07-24T12:30:57.340Z,33.42
2018-07-24T12:31:57.349Z,33.08
2018-07-24T12:32:57.362Z,33.07
2018-07-24T12:33:57.373Z,33.33
2018-07-24T12:34:57.384Z,33.52
2018-07-24T12:35:57.468Z,33.85
2018-07-24T12:36:57.404Z,34.00
2018-07-24T12:37:57.414Z,33.95
2018-07-24T12:38:57.425Z,33.58
2018-07-24T12:39:57.437Z,33.71
2018-07-24T12:40:57.446Z,33.70
2018-07-24T12:41:57.457Z,33.73
2018-07-24T12:42:57.469Z,33.63
2018-07-24T12:43:57.483Z,33.48
2018-07-24T12:44:57.491Z,33.22
2018-07-24T12:45:57.500Z,32.59
2018-07-24T12:46:57.529Z,32.51
2018-07-24T12:47:57.522Z,32.49
2018-07-24T12:48:57.533Z,32.59
2018-07-24T12:49:57.545Z,32.67
2018-07-24T12:50:57.553Z,32.91
2018-07-24T12:51:57.565Z,32.81
2018-07-24T12:52:57.583Z,32.88